Time;durP1;ratioP1;P1;durP2;ratioP2;P2;SDS_P1;SDS_P2;PMS_P1;PMS_P2;Temp;Humidity;BMP_temperature;BMP_pressure;BME280_temperature;BME280_humidity;BME280_pressure;Samples;Min_cycle;Max_cycle;Signal;HPM_P1;HPM_P2
2021/12/03 00:01:40;;;;;;;4.57;3.93;;;2.60;99.90;;;;;;5005906;28;20493;-77
2021/12/03 00:04:07;;;;;;;3.83;3.53;;;2.60;99.90;;;;;;5008425;28;20456;-78
2021/12/03 00:06:37;;;;;;;4.20;3.90;;;2.60;99.90;;;;;;5005816;28;20708;-77
2021/12/03 00:09:07;;;;;;;3.90;3.60;;;2.60;99.90;;;;;;5015608;28;20478;-78
2021/12/03 00:11:34;;;;;;;4.03;3.70;;;2.60;99.90;;;;;;5011295;28;20570;-78
2021/12/03 00:14:01;;;;;;;4.57;4.27;;;2.50;99.90;;;;;;5012211;28;20515;-78
2021/12/03 00:16:28;;;;;;;5.30;4.80;;;2.50;99.90;;;;;;5014052;28;20485;-78
2021/12/03 00:18:55;;;;;;;4.90;4.50;;;2.50;99.90;;;;;;5012079;28;20616;-78
2021/12/03 00:21:24;;;;;;;4.07;3.77;;;2.50;99.90;;;;;;5009490;28;20511;-78
2021/12/03 00:23:52;;;;;;;4.60;4.20;;;2.50;99.90;;;;;;5010287;28;20818;-78
2021/12/03 00:26:22;;;;;;;4.80;4.40;;;2.50;99.90;;;;;;5020440;28;20874;-78
2021/12/03 00:28:49;;;;;;;4.20;3.80;;;2.40;99.90;;;;;;5019057;23;20526;-51
2021/12/03 00:31:16;;;;;;;4.33;4.00;;;2.40;99.90;;;;;;5007596;28;20535;-51
2021/12/03 00:33:44;;;;;;;4.33;4.03;;;2.40;99.90;;;;;;5012625;28;20490;-51
2021/12/03 00:36:12;;;;;;;4.93;4.53;;;2.40;99.90;;;;;;5011633;28;20531;-52
2021/12/03 00:38:43;;;;;;;5.37;4.87;;;2.40;99.90;;;;;;5011340;28;20475;-52
2021/12/03 00:41:15;;;;;;;5.03;4.60;;;2.40;99.90;;;;;;5010405;28;20455;-52
2021/12/03 00:43:53;;;;;;;5.20;4.80;;;2.50;99.90;;;;;;5010782;28;20451;-51
2021/12/03 00:46:22;;;;;;;5.60;5.10;;;2.50;99.90;;;;;;5012235;28;20510;-52
2021/12/03 00:48:50;;;;;;;6.07;5.10;;;2.50;99.90;;;;;;5009193;28;20502;-53
2021/12/03 00:51:19;;;;;;;5.37;4.87;;;2.30;99.90;;;;;;5011956;28;20549;-50
2021/12/03 00:53:47;;;;;;;4.90;4.50;;;2.40;99.90;;;;;;5012371;28;20537;-51
2021/12/03 00:56:17;;;;;;;5.93;5.33;;;2.40;99.90;;;;;;5011247;28;20447;-52
2021/12/03 00:58:45;;;;;;;7.20;6.40;;;2.40;99.90;;;;;;5008943;28;20521;-52
2021/12/03 01:01:15;;;;;;;6.27;5.67;;;2.50;99.90;;;;;;5010813;28;20443;-52
2021/12/03 01:03:42;;;;;;;6.87;6.27;;;2.40;99.90;;;;;;5010365;28;20498;-51
2021/12/03 01:06:10;;;;;;;6.43;5.60;;;2.40;99.90;;;;;;5014879;28;20500;-52
2021/12/03 01:08:37;;;;;;;6.33;5.83;;;2.40;99.90;;;;;;5013252;28;21021;-50
2021/12/03 01:11:04;;;;;;;5.57;5.07;;;2.20;99.90;;;;;;5012242;28;20502;-51
2021/12/03 01:13:31;;;;;;;6.77;6.07;;;2.20;99.90;;;;;;5011948;28;20554;-52
2021/12/03 01:15:58;;;;;;;6.37;5.57;;;2.20;99.90;;;;;;5010116;28;20551;-53
2021/12/03 01:18:26;;;;;;;33.03;20.60;;;2.20;99.90;;;;;;5011265;28;20475;-50
2021/12/03 01:20:54;;;;;;;19.67;13.20;;;2.20;99.90;;;;;;5005310;28;20963;-51
2021/12/03 01:23:20;;;;;;;8.97;8.07;;;2.20;99.90;;;;;;5005446;28;20451;-52
2021/12/03 01:25:47;;;;;;;7.57;6.87;;;2.20;99.90;;;;;;5011925;28;20935;-51
2021/12/03 01:28:15;;;;;;;7.70;6.90;;;2.30;99.90;;;;;;5010791;28;21036;-51
2021/12/03 01:30:43;;;;;;;8.37;7.00;;;2.30;99.90;;;;;;5009653;28;20891;-50
2021/12/03 01:33:10;;;;;;;6.73;5.93;;;2.20;99.90;;;;;;5010236;28;20995;-53
2021/12/03 01:35:39;;;;;;;8.30;6.17;;;2.20;99.90;;;;;;5009085;28;20993;-51
2021/12/03 01:38:08;;;;;;;7.00;6.40;;;1.70;99.90;;;;;;5011371;28;20517;-52
2021/12/03 01:40:36;;;;;;;5.50;5.00;;;1.20;99.90;;;;;;5008367;28;20504;-51
2021/12/03 01:43:05;;;;;;;3.40;3.10;;;1.20;99.90;;;;;;5004787;28;20477;-51
2021/12/03 01:45:36;;;;;;;5.60;5.10;;;1.40;99.90;;;;;;5010746;28;20451;-51
2021/12/03 01:48:04;;;;;;;5.20;4.70;;;1.60;99.90;;;;;;5011621;28;20547;-51
2021/12/03 01:50:33;;;;;;;2.23;2.03;;;1.40;99.90;;;;;;5010245;28;20932;-52
2021/12/03 01:53:02;;;;;;;1.57;1.47;;;1.30;99.90;;;;;;5004907;28;20864;-51
2021/12/03 01:55:29;;;;;;;1.70;1.60;;;1.40;99.90;;;;;;5008199;28;20534;-52
2021/12/03 01:57:56;;;;;;;1.70;1.60;;;1.40;99.90;;;;;;5010040;28;20506;-51
2021/12/03 02:00:27;;;;;;;2.00;1.80;;;1.50;99.90;;;;;;5010352;28;20857;-53
2021/12/03 02:02:54;;;;;;;1.63;1.53;;;1.60;99.90;;;;;;5011099;28;20467;-52
2021/12/03 02:05:22;;;;;;;1.40;1.30;;;1.50;99.90;;;;;;5006828;28;20459;-52
2021/12/03 02:07:49;;;;;;;1.53;1.20;;;1.50;99.90;;;;;;5012177;28;20457;-51
2021/12/03 02:10:27;;;;;;;1.57;1.47;;;1.50;99.90;;;;;;5003452;28;20436;-53
2021/12/03 02:12:55;;;;;;;0.90;0.80;;;1.50;99.90;;;;;;5003477;28;20481;-51
2021/12/03 02:15:22;;;;;;;1.30;1.20;;;1.50;99.90;;;;;;5008030;28;20455;-53
2021/12/03 02:17:49;;;;;;;1.60;1.40;;;1.50;99.90;;;;;;5011434;28;20455;-51
2021/12/03 02:20:17;;;;;;;2.50;1.13;;;1.50;99.90;;;;;;5002828;28;20877;-52
2021/12/03 02:22:47;;;;;;;1.60;1.10;;;1.50;99.90;;;;;;5008033;28;20509;-52
2021/12/03 02:25:20;;;;;;;1.37;1.27;;;1.50;99.90;;;;;;5010601;28;20450;-50
2021/12/03 02:27:47;;;;;;;1.47;1.07;;;1.50;99.90;;;;;;5009102;28;20446;-53
2021/12/03 02:30:14;;;;;;;1.50;1.20;;;1.40;99.90;;;;;;5008013;28;20490;-52
2021/12/03 02:32:41;;;;;;;1.97;1.30;;;1.50;99.90;;;;;;5008389;28;21246;-51
2021/12/03 02:35:09;;;;;;;1.87;1.10;;;1.50;99.90;;;;;;5010765;28;20511;-50
2021/12/03 02:37:36;;;;;;;1.40;1.30;;;1.50;99.90;;;;;;5010655;28;20580;-50
2021/12/03 02:40:06;;;;;;;1.23;1.13;;;1.50;99.90;;;;;;5007667;28;20610;-48
2021/12/03 02:42:34;;;;;;;0.80;0.80;;;1.40;99.90;;;;;;5009388;28;20514;-50
2021/12/03 02:45:01;;;;;;;1.20;1.10;;;1.40;99.90;;;;;;5010742;28;20477;-51
2021/12/03 02:47:28;;;;;;;1.30;1.20;;;1.40;99.90;;;;;;5008761;28;20442;-52
2021/12/03 02:49:54;;;;;;;2.07;0.90;;;1.40;99.90;;;;;;5006153;28;20588;-47
2021/12/03 02:52:21;;;;;;;1.17;1.10;;;1.40;99.90;;;;;;5009962;28;20478;-52
2021/12/03 02:54:48;;;;;;;2.20;1.10;;;1.40;99.90;;;;;;5009975;28;20568;-50
2021/12/03 02:57:17;;;;;;;1.27;1.00;;;1.50;99.90;;;;;;5008827;28;20481;-51
2021/12/03 02:59:44;;;;;;;1.20;1.00;;;1.50;99.90;;;;;;5009838;28;20521;-51
2021/12/03 03:02:11;;;;;;;1.17;1.07;;;1.50;99.90;;;;;;5008662;28;20447;-52
2021/12/03 03:04:38;;;;;;;0.80;0.73;;;1.40;99.90;;;;;;5008955;28;20930;-51
2021/12/03 03:07:05;;;;;;;1.43;1.30;;;1.40;99.90;;;;;;5009289;28;20447;-53
2021/12/03 03:09:32;;;;;;;2.17;1.60;;;1.40;99.90;;;;;;5009432;28;20556;-50
2021/12/03 03:12:00;;;;;;;2.00;1.63;;;1.40;99.90;;;;;;5008555;28;20538;-51
2021/12/03 03:14:28;;;;;;;1.97;1.53;;;1.40;99.90;;;;;;5009865;28;20483;-50
2021/12/03 03:16:55;;;;;;;1.80;1.70;;;1.50;99.90;;;;;;5006196;28;20486;-51
2021/12/03 03:19:24;;;;;;;2.13;1.73;;;1.60;99.90;;;;;;5009400;28;20464;-52
2021/12/03 03:21:52;;;;;;;3.17;1.70;;;1.70;99.90;;;;;;5010520;28;20502;-50
2021/12/03 03:24:19;;;;;;;1.93;1.73;;;1.70;99.90;;;;;;5009300;28;21010;-52
2021/12/03 03:26:47;;;;;;;1.97;1.87;;;1.70;99.90;;;;;;5006600;28;20509;-52
2021/12/03 03:29:16;;;;;;;2.20;2.10;;;1.80;99.90;;;;;;5006938;28;20522;-51
2021/12/03 03:31:45;;;;;;;2.33;2.13;;;1.80;99.90;;;;;;5011117;28;20935;-52
2021/12/03 03:34:12;;;;;;;2.20;1.90;;;1.90;99.90;;;;;;5011117;28;20485;-50
2021/12/03 03:36:42;;;;;;;1.90;1.57;;;1.80;99.90;;;;;;5010241;28;20461;-51
2021/12/03 03:39:12;;;;;;;1.60;1.50;;;1.80;99.90;;;;;;5013938;28;20470;-51
2021/12/03 03:41:40;;;;;;;1.83;1.73;;;1.70;99.90;;;;;;5013712;28;20474;-52
2021/12/03 03:44:07;;;;;;;1.50;1.40;;;1.50;99.90;;;;;;5012899;28;20478;-50
2021/12/03 03:46:34;;;;;;;2.20;1.50;;;1.40;99.90;;;;;;5010804;28;20902;-51
2021/12/03 03:49:03;;;;;;;1.97;1.83;;;1.20;99.90;;;;;;5014446;28;20474;-53
2021/12/03 03:51:30;;;;;;;2.00;1.80;;;0.80;99.90;;;;;;5012672;28;20867;-50
2021/12/03 03:53:57;;;;;;;1.90;1.67;;;1.00;99.90;;;;;;5013353;28;20902;-51
2021/12/03 03:56:24;;;;;;;1.90;1.80;;;0.80;99.90;;;;;;5010177;28;20443;-53
2021/12/03 03:58:51;;;;;;;1.70;1.60;;;0.80;99.90;;;;;;5005847;28;20882;-50
2021/12/03 04:01:18;;;;;;;1.93;1.80;;;0.70;99.90;;;;;;5012367;28;20451;-52
2021/12/03 04:03:46;;;;;;;2.07;1.90;;;0.80;99.90;;;;;;5010100;28;20475;-50
2021/12/03 04:06:15;;;;;;;1.70;1.60;;;0.70;99.90;;;;;;5014573;28;20451;-52
2021/12/03 04:08:42;;;;;;;2.30;2.10;;;0.60;99.90;;;;;;5011084;28;20984;-50
2021/12/03 04:11:10;;;;;;;1.90;1.80;;;0.60;99.90;;;;;;5012056;28;20443;-51
2021/12/03 04:13:37;;;;;;;2.93;2.17;;;0.60;99.90;;;;;;5008404;28;20896;-50
2021/12/03 04:16:05;;;;;;;1.73;1.63;;;0.50;99.90;;;;;;5014052;28;20447;-52
2021/12/03 04:18:32;;;;;;;1.80;1.70;;;0.50;99.90;;;;;;5012385;28;20497;-50
2021/12/03 04:20:59;;;;;;;1.90;1.80;;;0.60;99.90;;;;;;5010129;28;20481;-50
2021/12/03 04:23:28;;;;;;;1.83;1.60;;;0.70;99.90;;;;;;5012636;28;20457;-50
2021/12/03 04:25:55;;;;;;;2.53;1.80;;;0.70;99.90;;;;;;5012389;28;20540;-52
2021/12/03 04:28:23;;;;;;;2.30;2.10;;;0.70;99.90;;;;;;5011395;28;20874;-51
2021/12/03 04:30:51;;;;;;;1.70;1.60;;;0.50;99.90;;;;;;5010962;28;20525;-51
2021/12/03 04:33:18;;;;;;;1.93;1.60;;;0.50;99.90;;;;;;5012279;28;20950;-51
2021/12/03 04:35:46;;;;;;;2.57;2.20;;;0.60;99.90;;;;;;5011956;28;20446;-50
2021/12/03 04:38:13;;;;;;;2.43;1.80;;;0.70;99.90;;;;;;5006442;28;20990;-51
2021/12/03 04:40:42;;;;;;;2.40;2.17;;;0.80;99.90;;;;;;5009044;28;20965;-50
2021/12/03 04:43:10;;;;;;;3.83;2.30;;;1.00;99.90;;;;;;5010992;28;20861;-51
2021/12/03 04:45:37;;;;;;;6.03;2.70;;;1.20;99.90;;;;;;5013105;28;20854;-52
2021/12/03 04:48:05;;;;;;;2.50;2.30;;;1.30;99.90;;;;;;5012294;28;20528;-52
2021/12/03 04:50:35;;;;;;;2.70;2.40;;;1.40;99.90;;;;;;5003760;28;20478;-51
2021/12/03 04:53:02;;;;;;;3.63;2.47;;;1.40;99.90;;;;;;5011198;28;20543;-48
2021/12/03 04:55:29;;;;;;;3.30;2.43;;;1.50;99.90;;;;;;5005501;28;20569;-50
2021/12/03 04:57:58;;;;;;;2.50;2.30;;;1.30;99.90;;;;;;5009422;28;20535;-52
2021/12/03 05:00:28;;;;;;;1.93;1.73;;;1.00;99.90;;;;;;5007235;28;20522;-52
2021/12/03 05:02:56;;;;;;;2.73;2.03;;;1.00;99.90;;;;;;5010598;28;20486;-51
2021/12/03 05:05:25;;;;;;;2.77;2.57;;;1.00;99.90;;;;;;5008854;28;20443;-48
2021/12/03 05:10:40;;;;;;;2.17;1.97;;;0.80;99.90;;;;;;5008770;28;20440;-51
2021/12/03 05:13:11;;;;;;;2.60;2.40;;;1.00;99.90;;;;;;5013365;28;20501;-50
2021/12/03 05:15:40;;;;;;;3.47;2.80;;;1.10;99.90;;;;;;5005856;28;20483;-50
2021/12/03 05:18:09;;;;;;;2.60;2.40;;;1.30;99.90;;;;;;5010991;28;20475;-53
2021/12/03 05:20:36;;;;;;;3.30;2.63;;;1.40;99.90;;;;;;5009026;28;20921;-52
2021/12/03 05:23:04;;;;;;;2.67;2.47;;;1.50;99.90;;;;;;5012747;28;20541;-52
2021/12/03 05:25:31;;;;;;;3.10;2.20;;;1.60;99.90;;;;;;5006705;28;20496;-50
2021/12/03 05:27:58;;;;;;;3.87;2.70;;;1.60;99.90;;;;;;5009020;28;20815;-51
2021/12/03 05:30:27;;;;;;;2.60;2.40;;;1.70;99.90;;;;;;5010817;28;20486;-50
2021/12/03 05:32:55;;;;;;;2.90;2.70;;;1.70;99.90;;;;;;5010184;28;20443;-51
2021/12/03 05:35:22;;;;;;;4.13;3.03;;;1.70;99.90;;;;;;5009845;28;20567;-54
2021/12/03 05:37:49;;;;;;;3.17;2.50;;;1.70;99.90;;;;;;5007903;28;20509;-50
2021/12/03 05:40:17;;;;;;;2.60;2.33;;;1.70;99.90;;;;;;5009988;28;20937;-48
2021/12/03 05:42:45;;;;;;;2.50;2.30;;;1.70;99.90;;;;;;5008858;28;20530;-52
2021/12/03 05:45:15;;;;;;;3.73;2.60;;;1.70;99.90;;;;;;5006777;28;20443;-50
2021/12/03 05:47:43;;;;;;;2.47;2.27;;;1.70;99.90;;;;;;5008629;28;20502;-51
2021/12/03 05:50:12;;;;;;;3.10;2.80;;;1.60;99.90;;;;;;5011568;28;20503;-50
2021/12/03 05:52:39;;;;;;;3.37;3.07;;;1.70;99.90;;;;;;5009738;28;20482;-52
2021/12/03 05:55:08;;;;;;;4.13;3.83;;;1.60;99.90;;;;;;5009266;28;20537;-50
2021/12/03 05:57:35;;;;;;;4.00;3.13;;;1.60;99.90;;;;;;5009419;28;20447;-51
2021/12/03 06:00:04;;;;;;;3.77;3.47;;;1.60;99.90;;;;;;5005211;28;20474;-51
2021/12/03 06:02:31;;;;;;;4.87;3.87;;;1.60;99.90;;;;;;5008625;28;20458;-50
2021/12/03 06:04:59;;;;;;;2.60;2.40;;;1.50;99.90;;;;;;5008840;28;20951;-53
2021/12/03 06:07:26;;;;;;;3.77;3.20;;;1.10;99.90;;;;;;5014627;28;20481;-52
2021/12/03 06:09:53;;;;;;;3.93;3.10;;;1.00;99.90;;;;;;5010094;28;20543;-49
2021/12/03 06:12:20;;;;;;;3.90;3.60;;;1.10;99.90;;;;;;5010093;28;20501;-51
2021/12/03 06:14:47;;;;;;;4.07;2.93;;;1.10;99.90;;;;;;5007972;28;20507;-50
2021/12/03 06:17:15;;;;;;;3.67;3.30;;;1.10;99.90;;;;;;5009120;28;20885;-51
2021/12/03 06:19:43;;;;;;;3.70;3.20;;;0.60;99.90;;;;;;5009572;28;20477;-50
2021/12/03 06:22:12;;;;;;;2.80;2.33;;;0.40;99.90;;;;;;5007976;28;20457;-51
2021/12/03 06:24:40;;;;;;;3.50;3.00;;;0.30;99.90;;;;;;5007196;28;20446;-51
2021/12/03 06:27:07;;;;;;;2.93;2.63;;;0.40;99.90;;;;;;5010559;28;20861;-52
2021/12/03 06:29:35;;;;;;;3.20;2.90;;;0.50;99.90;;;;;;5008379;28;20978;-51
2021/12/03 06:32:02;;;;;;;3.40;3.03;;;0.60;99.90;;;;;;5007418;28;20485;-50
2021/12/03 06:34:29;;;;;;;3.13;2.80;;;0.60;99.90;;;;;;5005190;28;20591;-51
2021/12/03 06:36:56;;;;;;;2.80;2.60;;;0.60;99.90;;;;;;5011389;28;20525;-50
2021/12/03 06:39:24;;;;;;;3.57;3.27;;;0.60;99.90;;;;;;5007981;28;20538;-50
2021/12/03 06:41:51;;;;;;;4.03;3.50;;;0.00;99.90;;;;;;5007014;28;20992;-50
2021/12/03 06:44:18;;;;;;;3.73;3.40;;;-0.20;99.90;;;;;;5010497;28;20434;-48
2021/12/03 06:46:45;;;;;;;4.97;4.17;;;-0.10;99.90;;;;;;5009885;28;20507;-50
2021/12/03 06:49:12;;;;;;;4.57;4.10;;;0.10;99.90;;;;;;5010045;28;21027;-50
2021/12/03 06:51:42;;;;;;;4.70;4.30;;;0.30;99.90;;;;;;5010206;28;20453;-50
2021/12/03 06:54:10;;;;;;;4.33;3.93;;;0.40;99.90;;;;;;5009129;28;20447;-50
2021/12/03 06:56:48;;;;;;;3.93;3.60;;;0.60;99.90;;;;;;5008528;28;20472;-50
2021/12/03 06:59:16;;;;;;;4.03;3.70;;;0.60;99.90;;;;;;5008147;28;21049;-50
2021/12/03 07:01:43;;;;;;;4.23;3.80;;;0.70;99.90;;;;;;5007069;28;20499;-51
2021/12/03 07:04:11;;;;;;;5.93;5.47;;;0.70;99.90;;;;;;5011693;28;21008;-48
2021/12/03 07:06:38;;;;;;;6.13;4.20;;;0.80;99.90;;;;;;5008408;28;20451;-50
2021/12/03 07:09:06;;;;;;;5.60;5.00;;;0.90;99.90;;;;;;5005917;28;20544;-50
2021/12/03 07:11:33;;;;;;;7.90;5.70;;;0.90;99.90;;;;;;5008246;28;20469;-51
2021/12/03 07:14:02;;;;;;;7.00;6.30;;;0.90;99.90;;;;;;5002402;28;20497;-50
2021/12/03 07:16:29;;;;;;;6.13;5.53;;;1.00;99.90;;;;;;5005271;28;21006;-50
2021/12/03 07:18:57;;;;;;;6.33;5.73;;;1.00;99.90;;;;;;5009617;28;20527;-51
2021/12/03 07:21:24;;;;;;;6.70;5.77;;;1.00;99.90;;;;;;5008379;28;20791;-51
2021/12/03 07:23:51;;;;;;;6.03;5.43;;;1.10;99.90;;;;;;5010372;28;20541;-52
2021/12/03 07:26:18;;;;;;;6.10;5.50;;;1.10;99.90;;;;;;5008428;28;20918;-51
2021/12/03 07:28:46;;;;;;;8.83;6.07;;;1.10;99.90;;;;;;5007490;28;20470;-50
2021/12/03 07:31:14;;;;;;;9.53;6.00;;;1.00;99.90;;;;;;5008224;28;20454;-52
2021/12/03 07:33:41;;;;;;;8.17;6.07;;;0.90;99.90;;;;;;5008724;28;20541;-50
2021/12/03 07:36:09;;;;;;;9.60;6.50;;;0.80;99.90;;;;;;5006393;28;21025;-53
2021/12/03 07:38:37;;;;;;;8.27;6.50;;;0.70;99.90;;;;;;5007704;28;20532;-49
2021/12/03 07:41:05;;;;;;;9.00;6.37;;;0.50;99.90;;;;;;5007286;28;20537;-50
2021/12/03 07:43:32;;;;;;;7.47;6.33;;;0.50;99.90;;;;;;5008730;28;20863;-50
2021/12/03 07:46:00;;;;;;;7.27;6.53;;;0.70;99.90;;;;;;5006839;28;20453;-50
2021/12/03 07:48:28;;;;;;;7.30;6.23;;;0.80;99.90;;;;;;5007445;28;20570;-50
2021/12/03 07:50:56;;;;;;;7.47;6.77;;;0.90;99.90;;;;;;5010720;28;20439;-50
2021/12/03 07:53:24;;;;;;;8.80;6.03;;;1.00;99.90;;;;;;5008242;28;20538;-51
2021/12/03 07:55:53;;;;;;;10.53;6.60;;;1.10;99.90;;;;;;5006722;28;21028;-50
2021/12/03 07:58:21;;;;;;;8.47;6.97;;;1.10;99.90;;;;;;5008823;28;20470;-50
2021/12/03 08:00:48;;;;;;;6.80;5.60;;;1.20;99.90;;;;;;5009211;28;20521;-49
2021/12/03 08:03:15;;;;;;;7.37;6.30;;;1.30;99.90;;;;;;5006748;28;20505;-51
2021/12/03 08:05:44;;;;;;;7.07;6.27;;;1.20;99.90;;;;;;5007444;28;20511;-50
2021/12/03 08:08:11;;;;;;;7.73;6.50;;;1.20;99.90;;;;;;5010305;28;20506;-49
2021/12/03 08:10:38;;;;;;;6.53;5.83;;;1.20;99.90;;;;;;5006981;28;20862;-52
2021/12/03 08:13:05;;;;;;;7.87;6.83;;;1.20;99.90;;;;;;5008639;28;20492;-53
2021/12/03 08:15:36;;;;;;;9.13;8.20;;;1.30;99.90;;;;;;5007121;28;20517;-50
2021/12/03 08:18:05;;;;;;;13.13;9.80;;;1.30;99.90;;;;;;5005349;28;20516;-52
2021/12/03 08:20:32;;;;;;;11.67;9.87;;;1.30;99.90;;;;;;5008932;28;20455;-51
2021/12/03 08:23:01;;;;;;;12.40;10.53;;;1.30;99.90;;;;;;5011890;28;20477;-49
2021/12/03 08:25:28;;;;;;;12.73;9.47;;;1.30;99.90;;;;;;5009898;28;20471;-50
2021/12/03 08:27:55;;;;;;;13.27;10.27;;;1.30;99.90;;;;;;5011364;28;20467;-52
2021/12/03 08:30:25;;;;;;;12.60;10.93;;;1.30;99.90;;;;;;5011140;28;20444;-50
2021/12/03 08:32:52;;;;;;;13.93;12.43;;;0.80;99.90;;;;;;5011060;28;20488;-53
2021/12/03 08:35:19;;;;;;;18.03;13.80;;;-0.10;99.90;;;;;;5012407;28;20484;-51
2021/12/03 08:37:48;;;;;;;19.13;12.73;;;-0.40;99.90;;;;;;5011592;28;20559;-51
2021/12/03 08:40:17;;;;;;;14.13;10.80;;;-0.30;99.90;;;;;;5010296;28;20494;-50
2021/12/03 08:42:44;;;;;;;14.10;10.43;;;0.00;99.90;;;;;;5010705;28;21013;-51
2021/12/03 08:45:12;;;;;;;12.63;9.97;;;0.20;99.90;;;;;;5011693;28;20482;-50
2021/12/03 08:47:40;;;;;;;8.47;7.60;;;0.40;99.90;;;;;;5010763;28;20522;-51
2021/12/03 08:50:12;;;;;;;12.50;9.63;;;0.50;99.90;;;;;;5007977;28;20470;-51
2021/12/03 08:55:34;;;;;;;12.53;9.67;;;0.60;99.90;;;;;;4963998;28;20488;-50
2021/12/03 08:58:01;;;;;;;8.97;8.13;;;0.70;99.90;;;;;;5010502;28;20485;-53
2021/12/03 09:00:29;;;;;;;12.63;11.13;;;0.70;99.90;;;;;;5011328;28;20507;-51
2021/12/03 09:02:57;;;;;;;20.93;16.33;;;0.30;99.90;;;;;;5008625;28;20460;-52
2021/12/03 09:05:28;;;;;;;20.43;15.13;;;0.20;99.90;;;;;;5010728;28;20446;-52
2021/12/03 09:07:55;;;;;;;12.57;11.00;;;0.20;99.90;;;;;;5010594;28;20443;-52
2021/12/03 09:10:22;;;;;;;12.77;10.70;;;0.30;99.90;;;;;;5011255;28;20981;-51
2021/12/03 09:12:50;;;;;;;12.40;11.00;;;0.40;99.90;;;;;;5011280;28;20445;-53
2021/12/03 09:15:23;;;;;;;11.10;8.07;;;0.50;99.90;;;;;;5007882;28;20477;-51
2021/12/03 09:18:01;;;;;;;13.00;9.93;;;0.50;99.90;;;;;;5009261;28;20483;-50
2021/12/03 09:20:39;;;;;;;11.90;10.17;;;0.60;99.90;;;;;;5005878;28;20454;-52
2021/12/03 09:23:10;;;;;;;12.57;9.17;;;0.60;99.90;;;;;;5008017;28;20451;-51
2021/12/03 09:25:38;;;;;;;12.13;10.83;;;0.70;99.90;;;;;;5008297;28;20461;-50
2021/12/03 09:28:12;;;;;;;11.40;9.70;;;0.80;99.90;;;;;;5006590;28;20475;-52
2021/12/03 09:30:41;;;;;;;9.73;8.53;;;0.80;99.90;;;;;;5004755;28;20553;-48
2021/12/03 09:33:13;;;;;;;15.57;11.60;;;0.20;99.90;;;;;;5005289;28;20589;-51
2021/12/03 09:35:43;;;;;;;15.60;11.90;;;-0.30;99.90;;;;;;5007155;28;20482;-50
2021/12/03 09:38:10;;;;;;;12.70;10.23;;;-0.40;99.90;;;;;;5010730;28;21036;-50
2021/12/03 09:40:37;;;;;;;14.60;11.50;;;-0.30;99.90;;;;;;5008073;28;20455;-52
2021/12/03 09:43:06;;;;;;;23.80;15.90;;;-0.10;99.90;;;;;;5006253;28;20593;-52
2021/12/03 09:45:34;;;;;;;30.07;20.20;;;0.10;99.90;;;;;;5009975;28;20440;-50
2021/12/03 09:48:07;;;;;;;24.03;17.30;;;0.30;99.90;;;;;;5010627;28;20875;-51
2021/12/03 09:50:34;;;;;;;21.60;16.50;;;0.40;99.90;;;;;;5010612;28;20531;-50
2021/12/03 09:53:16;;;;;;;18.00;12.90;;;0.60;99.90;;;;;;5011527;28;20506;-50
2021/12/03 09:55:43;;;;;;;12.80;9.50;;;0.70;99.90;;;;;;5009337;28;20934;-49
2021/12/03 09:58:19;;;;;;;11.03;8.17;;;0.80;99.90;;;;;;5009059;28;20464;-51
2021/12/03 10:00:52;;;;;;;10.70;7.97;;;0.70;99.90;;;;;;5007808;28;20453;-50
2021/12/03 10:12:13;;;;;;;10.80;8.20;;;0.60;99.90;;;;;;4998625;28;20480;-51
2021/12/03 10:14:57;;;;;;;12.60;7.93;;;0.70;99.90;;;;;;5008483;28;20484;-50
2021/12/03 10:20:19;;;;;;;9.80;7.33;;;0.90;99.90;;;;;;5003432;28;20482;-52
2021/12/03 10:34:24;;;;;;;4.50;4.10;;;1.10;99.90;;;;;;5008019;28;20450;-50
2021/12/03 10:39:48;;;;;;;4.80;4.40;;;1.30;99.90;;;;;;5002306;28;20485;-53
2021/12/03 10:42:29;;;;;;;2.93;2.40;;;1.30;99.90;;;;;;5008516;28;20530;-50
2021/12/03 10:45:07;;;;;;;2.63;2.03;;;1.10;99.90;;;;;;5008597;28;20850;-48
2021/12/03 10:47:47;;;;;;;3.00;1.80;;;1.20;99.90;;;;;;5009838;28;20442;-50
2021/12/03 10:50:28;;;;;;;1.80;1.50;;;1.30;99.90;;;;;;5010165;28;20878;-51
2021/12/03 10:53:08;;;;;;;2.00;1.70;;;1.30;99.90;;;;;;5003811;28;20449;-51
2021/12/03 13:01:44;;;;;;;4.33;2.83;;;2.20;99.90;;;;;;5011724;28;20791;-51
2021/12/03 13:27:07;;;;;;;1.43;1.33;;;2.40;99.90;;;;;;4985873;28;20924;-53
2021/12/03 14:00:44;;;;;;;1.33;1.23;;;2.10;99.90;;;;;;5009468;28;20455;-51
2021/12/03 14:40:32;;;;;;;4.40;2.77;;;1.40;99.90;;;;;;4983054;28;20243;-50
2021/12/03 14:43:07;;;;;;;1.20;1.10;;;1.50;99.90;;;;;;5010059;28;20820;-51
2021/12/03 14:46:01;;;;;;;0.93;0.80;;;1.70;99.90;;;;;;5009162;28;20474;-53
2021/12/03 14:54:31;;;;;;;0.80;0.80;;;1.40;99.90;;;;;;5008107;28;21040;-52
2021/12/03 14:57:19;;;;;;;1.33;1.10;;;1.40;99.90;;;;;;5003778;28;20479;-54
2021/12/03 14:59:55;;;;;;;1.10;1.00;;;1.40;99.90;;;;;;5008362;28;20472;-52
2021/12/03 15:05:43;;;;;;;1.37;1.03;;;1.20;99.90;;;;;;5066869;28;21072;-52
2021/12/03 15:08:15;;;;;;;1.83;0.87;;;0.90;99.90;;;;;;5044927;28;20456;-53
2021/12/03 15:10:59;;;;;;;2.97;1.90;;;1.00;99.90;;;;;;5038634;28;20460;-51
2021/12/03 15:13:49;;;;;;;2.37;1.30;;;1.10;99.90;;;;;;5041769;28;20516;-49
2021/12/03 15:19:40;;;;;;;1.10;1.00;;;1.00;99.90;;;;;;5035192;28;20444;-53
2021/12/03 15:22:26;;;;;;;3.80;3.30;;;1.00;99.90;;;;;;5039758;28;20537;-51
2021/12/03 15:25:01;;;;;;;2.13;1.60;;;1.10;99.90;;;;;;5041719;28;20444;-53
2021/12/03 15:30:36;;;;;;;1.40;1.00;;;0.90;99.90;;;;;;5039332;28;20961;-51
2021/12/03 15:33:07;;;;;;;1.43;1.20;;;0.80;99.90;;;;;;5039402;28;20815;-53
2021/12/03 15:35:43;;;;;;;2.07;1.53;;;1.00;99.90;;;;;;5040684;28;20814;-52
2021/12/03 15:41:16;;;;;;;1.63;1.00;;;0.80;99.90;;;;;;5035975;28;20908;-53
2021/12/03 15:55:15;;;;;;;1.07;1.07;;;0.80;99.90;;;;;;5043619;28;20565;-51
2021/12/03 16:06:20;;;;;;;1.40;1.20;;;0.60;99.90;;;;;;5042212;28;20520;-50
2021/12/03 16:08:49;;;;;;;1.63;1.43;;;0.70;99.90;;;;;;5043560;28;20468;-52
2021/12/03 16:11:27;;;;;;;3.23;1.10;;;0.30;99.90;;;;;;5043104;28;20445;-51
2021/12/03 16:14:06;;;;;;;2.00;1.17;;;0.30;99.90;;;;;;5039001;28;20491;-51
2021/12/03 16:19:51;;;;;;;3.90;3.27;;;0.30;99.90;;;;;;5023288;28;20714;-51
2021/12/03 16:22:30;;;;;;;4.57;2.77;;;0.40;99.90;;;;;;5025347;28;20470;-51
2021/12/03 16:25:11;;;;;;;2.33;2.00;;;0.50;99.90;;;;;;5025070;28;20444;-52
2021/12/03 16:44:20;;;;;;;1.00;0.90;;;0.20;99.90;;;;;;5028782;28;20434;-52
2021/12/03 16:46:55;;;;;;;1.03;0.60;;;0.30;99.90;;;;;;5027580;28;20479;-51
2021/12/03 16:52:11;;;;;;;1.17;1.07;;;0.30;99.90;;;;;;5033275;28;20436;-51
2021/12/03 16:54:41;;;;;;;1.10;0.80;;;0.30;99.90;;;;;;5028454;28;20488;-52
2021/12/03 16:57:10;;;;;;;3.17;2.40;;;0.30;99.90;;;;;;5026384;28;20468;-50
2021/12/03 16:59:41;;;;;;;7.10;4.30;;;0.20;99.90;;;;;;5028199;28;20484;-52
2021/12/03 17:02:14;;;;;;;4.97;2.80;;;0.30;99.90;;;;;;5027202;28;20452;-53
2021/12/03 17:04:56;;;;;;;1.90;1.40;;;0.30;99.90;;;;;;5026261;28;20448;-50
2021/12/03 17:10:51;;;;;;;2.80;1.30;;;0.10;99.90;;;;;;5028161;28;21025;-52
2021/12/03 17:30:14;;;;;;;0.80;0.80;;;0.10;99.90;;;;;;5028520;28;20440;-50
2021/12/03 17:49:29;;;;;;;1.10;0.63;;;0.10;99.90;;;;;;5029862;28;20457;-52
2021/12/03 17:52:09;;;;;;;1.00;0.90;;;0.20;99.90;;;;;;5026454;28;20451;-52
2021/12/03 17:54:45;;;;;;;1.03;0.63;;;0.30;99.90;;;;;;5026201;28;20529;-52
2021/12/03 17:57:22;;;;;;;0.50;0.50;;;0.10;99.90;;;;;;5025305;28;20924;-51
2021/12/03 17:59:50;;;;;;;0.83;0.73;;;0.00;99.90;;;;;;5019400;28;20549;-51
2021/12/03 18:02:26;;;;;;;0.70;0.60;;;0.00;99.90;;;;;;5029222;28;20450;-51
2021/12/03 18:05:04;;;;;;;1.10;0.80;;;0.10;99.90;;;;;;5020642;28;20845;-50
2021/12/03 18:07:45;;;;;;;0.73;0.70;;;0.10;99.90;;;;;;5019943;28;20664;-51
2021/12/03 18:10:31;;;;;;;0.80;0.80;;;0.10;99.90;;;;;;5025474;28;21061;-51
2021/12/03 18:49:10;;;;;;;6.77;4.27;;;-0.30;99.90;;;;;;5008861;28;20454;-51
2021/12/03 18:51:45;;;;;;;3.70;2.63;;;-0.20;99.90;;;;;;5019898;28;20447;-52
2021/12/03 18:54:32;;;;;;;5.90;4.20;;;-0.10;99.90;;;;;;5021052;28;20506;-49
2021/12/03 18:57:07;;;;;;;15.83;3.73;;;-0.10;99.90;;;;;;5022892;28;20568;-51
2021/12/03 18:59:39;;;;;;;3.13;2.33;;;-0.10;99.90;;;;;;5019931;28;20496;-51
2021/12/03 19:02:08;;;;;;;3.00;2.07;;;-0.10;99.90;;;;;;5024585;28;20471;-50
2021/12/03 19:04:43;;;;;;;2.07;1.40;;;-0.10;99.90;;;;;;5024665;28;20456;-51
2021/12/03 19:07:13;;;;;;;1.40;1.30;;;-0.20;99.90;;;;;;5023815;28;20503;-51
2021/12/03 19:09:44;;;;;;;1.67;1.10;;;-0.20;99.90;;;;;;5026360;28;20494;-51
2021/12/03 19:12:14;;;;;;;2.43;1.23;;;-0.20;99.90;;;;;;5025956;28;20455;-51
2021/12/03 19:14:48;;;;;;;1.70;1.60;;;-0.30;99.90;;;;;;5022579;28;20479;-51
2021/12/03 19:17:15;;;;;;;1.80;1.63;;;-0.40;99.90;;;;;;5026343;28;20444;-51
2021/12/03 19:19:44;;;;;;;3.80;2.20;;;-0.40;99.90;;;;;;5027487;28;20491;-52
2021/12/03 19:22:11;;;;;;;2.73;2.50;;;-0.40;99.90;;;;;;5024920;28;20509;-51
2021/12/03 19:24:38;;;;;;;3.80;2.40;;;-0.40;99.90;;;;;;5025144;28;20509;-50
2021/12/03 19:27:08;;;;;;;2.57;1.80;;;-0.40;99.90;;;;;;5023957;28;20445;-51
2021/12/03 19:29:36;;;;;;;2.57;1.67;;;-0.40;99.90;;;;;;5028480;28;20469;-51